Terminal Aerodrome Forecast
Issued by NWS

Home | Current Version | Previous Version | Text Only | Print | Product List | Glossary Off
Versions: 1 2 3 4 5 6 7 8 9 10 11 12 13 14 15 16 17 18 19 20 21 22 23 24 25 26

000
FTUS43 KLOT 230500
TAFORD
TAF
KORD 230520Z 2306/2412 11012KT 2SM -RADZ BR OVC007
     FM231000 14010KT 5SM BR OVC006
     FM231200 19010KT 6SM BR OVC010
     FM231600 21012G18KT P6SM BKN020
     FM240000 20007KT P6SM BKN020
     FM240900 35008KT P6SM OVC015=

USA.gov is the U.S. government's official web portal to all federal, state and local government web resources and services.